BFG weather

Bullfrog Basin Airport
Glen Canyon Natl Rec Area, Utah, United States

Public forecast

Using degrees Fahrenheit for public forecast. Weather courtesy of forecast.io.

METAR (pilot weather report)

Closest report is Page Municipal Airport, 51.2 nm (94.8 km) SW. Retrieved 2019/07/21 08:53 UTC (56 minutes ago):

KPGA 210853Z AUTO 34004KT 10SM CLR 26/M01 A3001 RMK AO2 SLP084 T02611011 51014 TSNO

TAF (pilot weather forecast)

Closest forecast is Page Municipal Airport, 51.2 nm (94.8 km) SW. Retrieved 2019/07/21 06:21 UTC (3 hours ago):

TAF KPGA 210520Z 2106/2206 VRB06KT P6SM SKC